Tom Frazier — WDD4376 — position and weather

sailwx.info

Track history (hours):
 
Tides and Currents Weather Stations Pressure Air Temp Water Temp Dewpoint Dewpoint Depression Visibility Wind Speed Wind Dir Waves Ship Positions

Tom Frazier

Owner: American Commercial Lines LLC, Jeffersonville, IN. More information available from US FCC via Universal Licensing System and Coast Guard Vessel Documentation Center.

Last reported at 2017-Sep-26 09:47 UTC. Time now 2017-Oct-19 12:29 UTC.
Position N 38°59' W 090°34'.
Warning: this ship's position is 23 days out of date.

Length 48 m; draft 2.9 m.

Type: Towing. MMSI: 367143910.

Date/timePositionNaut miles runAvg speedWind from/ knotsBaromVisibWave heightAir tempDewpointWater temp
2017-Sep-26 09:47N 38°59' W 090°34'1 4.0
2017-Sep-26 09:31N 38°58' W 090°33'2 3.4
2017-Sep-26 09:01N 38°57' W 090°31'2 3.8
2017-Sep-26 08:31N 38°58' W 090°28'2 3.8
2017-Sep-26 08:01N 38°58' W 090°26'2 3.6
2017-Sep-26 07:31N 38°58' W 090°24'2 3.7
2017-Sep-26 07:00N 38°57' W 090°22'2 3.7
2017-Sep-26 06:31N 38°56' W 090°20'1 2.3
2017-Sep-26 06:00N 38°55' W 090°18'2 4.1
2017-Sep-26 05:27N 38°55' W 090°15'2 4.4
2017-Sep-26 04:59N 38°54' W 090°13'2 4.1
2017-Sep-26 04:31N 38°53' W 090°11'1 0.0
2017-Sep-24 14:44N 38°54' W 090°12'2 1.2
2017-Sep-24 13:06N 38°55' W 090°14'0 0.1
2017-Sep-24 12:52N 38°55' W 090°14'0 0.5
2017-Sep-24 12:25N 38°55' W 090°15'2 3.9
2017-Sep-24 12:00N 38°55' W 090°17'2 4.0
2017-Sep-24 11:30N 38°56' W 090°19'2 4.1
2017-Sep-24 11:00N 38°57' W 090°21'2 4.2
2017-Sep-24 10:30N 38°58' W 090°24'2 4.3
2017-Sep-24 10:00N 38°58' W 090°26'2 4.3
2017-Sep-24 09:30N 38°58' W 090°29'2 3.7
2017-Sep-24 09:00N 38°57' W 090°31'  
Track history (hours):
 
Tides and Currents Weather Stations Pressure Air Temp Water Temp Dewpoint Dewpoint Depression Visibility Wind Speed Wind Dir Waves Ship Positions

Tom Frazier

Owner: American Commercial Lines LLC, Jeffersonville, IN. More information available from US FCC via Universal Licensing System and Coast Guard Vessel Documentation Center.

Last reported at 2017-Sep-26 09:47 UTC. Time now 2017-Oct-19 12:29 UTC.
Position N 38°59' W 090°34'.
Warning: this ship's position is 23 days out of date.

Length 48 m; draft 2.9 m.

Type: Towing. MMSI: 367143910.

Date/timePositionNaut miles runAvg speedWind from/ knotsBaromVisibWave heightAir tempDewpointWater temp
2017-Sep-26 09:47N 38°59' W 090°34'1 4.0
2017-Sep-26 09:31N 38°58' W 090°33'2 3.4
2017-Sep-26 09:01N 38°57' W 090°31'2 3.8
2017-Sep-26 08:31N 38°58' W 090°28'2 3.8
2017-Sep-26 08:01N 38°58' W 090°26'2 3.6
2017-Sep-26 07:31N 38°58' W 090°24'2 3.7
2017-Sep-26 07:00N 38°57' W 090°22'2 3.7
2017-Sep-26 06:31N 38°56' W 090°20'1 2.3
2017-Sep-26 06:00N 38°55' W 090°18'2 4.1
2017-Sep-26 05:27N 38°55' W 090°15'2 4.4
2017-Sep-26 04:59N 38°54' W 090°13'2 4.1
2017-Sep-26 04:31N 38°53' W 090°11'1 0.0
2017-Sep-24 14:44N 38°54' W 090°12'2 1.2
2017-Sep-24 13:06N 38°55' W 090°14'0 0.1
2017-Sep-24 12:52N 38°55' W 090°14'0 0.5
2017-Sep-24 12:25N 38°55' W 090°15'2 3.9
2017-Sep-24 12:00N 38°55' W 090°17'2 4.0
2017-Sep-24 11:30N 38°56' W 090°19'2 4.1
2017-Sep-24 11:00N 38°57' W 090°21'2 4.2
2017-Sep-24 10:30N 38°58' W 090°24'2 4.3
2017-Sep-24 10:00N 38°58' W 090°26'2 4.3
2017-Sep-24 09:30N 38°58' W 090°29'2 3.7
2017-Sep-24 09:00N 38°57' W 090°31'  

Dump ship's entire track history